Route Details

Aircraft Information
Group: North America Fleet
Types: B738, B752, B762, B763
Route Data
Distance: 828nm
Duration: 2h 35m
Origin METAR: KLAL 100415Z AUTO 32005KT 3SM BR OVC002 18/18 A3014 RMK AO2 T01750175
Dest. METAR: KABE 100351Z 06004KT 10SM CLR M01/M06 A3031 RMK AO2 SLP267 T10111061
Freight Data
(for Dec 10, 2022)
Load Factor:
57%
Manifested Cargo: 74,416lbs
Financial History
Total Freight: 110,853lbs
Average Load: 0lbs/flt
Fuel Used: 42,967lbs
Avg. Fuel Used: 0lbs/flt
Fuel Expense: $23,694
Avg. Fuel Expense: $0
Avg. Fuel Cost: $0/lbs
Total Gross Income: $282,675
Pilot Pay: $438
Total Expenses: $54,597
Total Revenue: $202,662
Average Revenue: $0

Capitol Logistics 403




KLAL
Lakeland Linder Regional Airport
Lakeland, Florida
KABE
Lehigh Valley International Airport
Allentown, Pennsylvania